Portada
METAR-TAF:

METAR-TAF

Aeropuertos :

Clinton Municipal Airport

Clinton, Iowa, Estados Unidos

latitud: 41-50N, longitud: 090-20W, altitud: 216 m

Observación

El informe se hizo hace 1 hora y 12 minutos, a las 18:56 UTC
Viento 11 kt del oeste
Temperatura 29°C
Humedad 66%
Presión 1023 hPa
Visibilidad: 16.1 km
Cielo nuboso a una altura de 3700 ft
Cielo cubierto a una altura de 4500 ft

METAR: KCWI 191856Z AUTO 26011KT 10SM BKN037 OVC045 29/22 A3020 RMK AO2 SLP223 T02890222

Hora: 15:08 (20:08 UTC)


TAF: falta

Observaciones y pronósticos meteorológicos de más de 4000 aeropuertos (mensajes METAR y TAF).

Los puntos amarillos y rojos representan las estaciones disponibles.

Ponga el ratón en el punto deseado para ver el nombre de la estación.

Haga clic para ver las observaciones y los pronósticos meteorológicos.

Para cambiar el mapa : haga clic en los botones verdes con una cruz de color negro para hacer un zoom, en el botón verde con un guión para alejar o en las flechas verdes para mapas adyacentes.


METAR-TAF: